sensor_id;sensor_type;location;lat;lon;timestamp;pressure;altitude;pressure_sealevel;temperature;humidity
21588;BME280;10956;48.878;13.316;2024-03-17T00:00:40;94733.94;;;7.92;100.00
21588;BME280;10956;48.878;13.316;2024-03-17T00:03:06;94732.19;;;7.81;100.00
21588;BME280;10956;48.878;13.316;2024-03-17T00:05:35;94726.88;;;7.64;100.00
21588;BME280;10956;48.878;13.316;2024-03-17T00:08:02;94727.28;;;7.44;100.00
21588;BME280;10956;48.878;13.316;2024-03-17T00:10:30;94723.22;;;7.36;100.00
21588;BME280;10956;48.878;13.316;2024-03-17T00:12:55;94717.22;;;7.12;100.00
21588;BME280;10956;48.878;13.316;2024-03-17T00:15:22;94721.59;;;6.95;100.00
21588;BME280;10956;48.878;13.316;2024-03-17T00:17:48;94720.91;;;6.88;100.00
21588;BME280;10956;48.878;13.316;2024-03-17T00:20:13;94732.88;;;6.84;100.00
21588;BME280;10956;48.878;13.316;2024-03-17T00:22:46;94734.47;;;6.73;100.00
21588;BME280;10956;48.878;13.316;2024-03-17T00:25:12;94739.03;;;6.66;100.00
21588;BME280;10956;48.878;13.316;2024-03-17T00:27:37;94735.50;;;6.61;100.00
21588;BME280;10956;48.878;13.316;2024-03-17T00:30:07;94728.31;;;6.56;100.00
21588;BME280;10956;48.878;13.316;2024-03-17T00:32:39;94725.59;;;6.51;100.00
21588;BME280;10956;48.878;13.316;2024-03-17T00:35:06;94729.69;;;6.47;100.00
21588;BME280;10956;48.878;13.316;2024-03-17T00:37:32;94730.13;;;6.44;100.00
21588;BME280;10956;48.878;13.316;2024-03-17T00:39:59;94734.81;;;6.42;100.00
21588;BME280;10956;48.878;13.316;2024-03-17T00:42:24;94728.09;;;6.34;100.00
21588;BME280;10956;48.878;13.316;2024-03-17T00:44:50;94723.19;;;6.38;100.00
21588;BME280;10956;48.878;13.316;2024-03-17T00:47:15;94726.84;;;6.37;100.00
21588;BME280;10956;48.878;13.316;2024-03-17T00:49:41;94724.53;;;6.29;100.00
21588;BME280;10956;48.878;13.316;2024-03-17T00:52:06;94731.25;;;6.25;100.00
21588;BME280;10956;48.878;13.316;2024-03-17T00:54:31;94728.06;;;6.23;100.00
21588;BME280;10956;48.878;13.316;2024-03-17T00:56:57;94727.94;;;6.18;100.00
21588;BME280;10956;48.878;13.316;2024-03-17T00:59:22;94739.88;;;6.13;100.00
21588;BME280;10956;48.878;13.316;2024-03-17T01:01:48;94728.28;;;6.09;100.00
21588;BME280;10956;48.878;13.316;2024-03-17T01:04:13;94725.97;;;6.01;100.00
21588;BME280;10956;48.878;13.316;2024-03-17T01:06:39;94735.28;;;5.97;100.00
21588;BME280;10956;48.878;13.316;2024-03-17T01:09:06;94738.81;;;5.91;100.00
21588;BME280;10956;48.878;13.316;2024-03-17T01:11:32;94742.28;;;5.85;100.00
21588;BME280;10956;48.878;13.316;2024-03-17T01:13:57;94736.34;;;5.78;100.00
21588;BME280;10956;48.878;13.316;2024-03-17T01:16:22;94740.41;;;5.74;100.00
21588;BME280;10956;48.878;13.316;2024-03-17T01:18:48;94739.63;;;5.73;100.00
21588;BME280;10956;48.878;13.316;2024-03-17T01:21:14;94739.84;;;5.72;100.00
21588;BME280;10956;48.878;13.316;2024-03-17T01:23:39;94739.28;;;5.70;100.00
21588;BME280;10956;48.878;13.316;2024-03-17T01:26:04;94743.47;;;5.71;100.00
21588;BME280;10956;48.878;13.316;2024-03-17T01:28:30;94751.41;;;5.64;100.00
21588;BME280;10956;48.878;13.316;2024-03-17T01:30:56;94741.97;;;5.63;100.00
21588;BME280;10956;48.878;13.316;2024-03-17T01:33:21;94745.81;;;5.61;100.00
21588;BME280;10956;48.878;13.316;2024-03-17T01:35:47;94751.41;;;5.64;100.00
21588;BME280;10956;48.878;13.316;2024-03-17T01:38:12;94758.16;;;5.72;100.00
21588;BME280;10956;48.878;13.316;2024-03-17T01:40:38;94755.66;;;5.77;100.00
21588;BME280;10956;48.878;13.316;2024-03-17T01:43:03;94760.16;;;5.88;100.00
21588;BME280;10956;48.878;13.316;2024-03-17T01:45:30;94755.53;;;5.90;100.00
21588;BME280;10956;48.878;13.316;2024-03-17T01:48:00;94760.53;;;5.92;100.00
21588;BME280;10956;48.878;13.316;2024-03-17T01:50:35;94748.69;;;5.89;100.00
21588;BME280;10956;48.878;13.316;2024-03-17T01:53:03;94748.09;;;5.87;100.00
21588;BME280;10956;48.878;13.316;2024-03-17T01:55:33;94744.63;;;5.75;100.00
21588;BME280;10956;48.878;13.316;2024-03-17T01:58:00;94742.91;;;5.69;100.00
21588;BME280;10956;48.878;13.316;2024-03-17T02:00:25;94744.22;;;5.60;100.00
21588;BME280;10956;48.878;13.316;2024-03-17T02:02:52;94744.31;;;5.53;100.00
21588;BME280;10956;48.878;13.316;2024-03-17T02:05:17;94741.78;;;5.46;100.00
21588;BME280;10956;48.878;13.316;2024-03-17T02:07:43;94738.59;;;5.44;100.00
21588;BME280;10956;48.878;13.316;2024-03-17T02:10:08;94748.09;;;5.39;100.00
21588;BME280;10956;48.878;13.316;2024-03-17T02:12:35;94750.94;;;5.37;100.00
21588;BME280;10956;48.878;13.316;2024-03-17T02:15:01;94754.13;;;5.39;100.00
21588;BME280;10956;48.878;13.316;2024-03-17T02:17:30;94750.06;;;5.43;100.00
21588;BME280;10956;48.878;13.316;2024-03-17T02:19:56;94742.34;;;5.48;100.00
21588;BME280;10956;48.878;13.316;2024-03-17T02:22:21;94748.31;;;5.56;100.00
21588;BME280;10956;48.878;13.316;2024-03-17T02:24:47;94748.31;;;5.56;100.00
21588;BME280;10956;48.878;13.316;2024-03-17T02:27:12;94742.06;;;5.57;100.00
21588;BME280;10956;48.878;13.316;2024-03-17T02:29:38;94736.69;;;5.51;100.00
21588;BME280;10956;48.878;13.316;2024-03-17T02:32:07;94736.69;;;5.51;100.00
21588;BME280;10956;48.878;13.316;2024-03-17T02:34:35;94736.69;;;5.51;100.00
21588;BME280;10956;48.878;13.316;2024-03-17T02:37:01;94743.75;;;5.51;100.00
21588;BME280;10956;48.878;13.316;2024-03-17T02:39:28;94741.63;;;5.60;100.00
21588;BME280;10956;48.878;13.316;2024-03-17T02:42:10;94738.56;;;5.63;100.00
21588;BME280;10956;48.878;13.316;2024-03-17T02:44:37;94731.28;;;5.65;100.00
21588;BME280;10956;48.878;13.316;2024-03-17T02:47:04;94735.72;;;5.64;100.00
21588;BME280;10956;48.878;13.316;2024-03-17T02:49:30;94739.28;;;5.70;100.00
21588;BME280;10956;48.878;13.316;2024-03-17T02:52:04;94736.78;;;5.75;100.00
21588;BME280;10956;48.878;13.316;2024-03-17T02:54:34;94738.38;;;5.76;100.00
21588;BME280;10956;48.878;13.316;2024-03-17T02:57:01;94737.66;;;5.69;100.00
21588;BME280;10956;48.878;13.316;2024-03-17T02:59:26;94738.16;;;5.77;100.00
21588;BME280;10956;48.878;13.316;2024-03-17T03:01:52;94733.28;;;5.81;100.00
21588;BME280;10956;48.878;13.316;2024-03-17T03:04:18;94721.88;;;5.75;100.00
21588;BME280;10956;48.878;13.316;2024-03-17T03:06:43;94719.25;;;5.64;100.00
21588;BME280;10956;48.878;13.316;2024-03-17T03:09:08;94728.53;;;5.60;100.00
21588;BME280;10956;48.878;13.316;2024-03-17T03:11:39;94727.38;;;5.56;100.00
21588;BME280;10956;48.878;13.316;2024-03-17T03:14:06;94739.44;;;5.57;100.00
21588;BME280;10956;48.878;13.316;2024-03-17T03:16:32;94734.66;;;5.54;100.00
21588;BME280;10956;48.878;13.316;2024-03-17T03:18:58;94734.78;;;5.59;100.00
21588;BME280;10956;48.878;13.316;2024-03-17T03:21:24;94738.44;;;5.58;100.00
21588;BME280;10956;48.878;13.316;2024-03-17T03:23:49;94739.00;;;5.60;100.00
21588;BME280;10956;48.878;13.316;2024-03-17T03:26:14;94739.13;;;5.65;100.00
21588;BME280;10956;48.878;13.316;2024-03-17T03:28:40;94732.19;;;5.59;100.00
21588;BME280;10956;48.878;13.316;2024-03-17T03:31:05;94729.69;;;5.64;100.00
21588;BME280;10956;48.878;13.316;2024-03-17T03:33:32;94735.94;;;5.63;100.00
21588;BME280;10956;48.878;13.316;2024-03-17T03:35:57;94726.94;;;5.59;100.00
21588;BME280;10956;48.878;13.316;2024-03-17T03:38:23;94727.38;;;5.56;100.00
21588;BME280;10956;48.878;13.316;2024-03-17T03:40:49;94726.81;;;5.54;100.00
21588;BME280;10956;48.878;13.316;2024-03-17T03:43:14;94730.44;;;5.53;100.00
21588;BME280;10956;48.878;13.316;2024-03-17T03:45:40;94736.81;;;5.57;100.00
21588;BME280;10956;48.878;13.316;2024-03-17T03:48:07;94730.13;;;5.61;100.00
21588;BME280;10956;48.878;13.316;2024-03-17T03:50:36;94738.69;;;5.68;100.00
21588;BME280;10956;48.878;13.316;2024-03-17T03:53:02;94731.06;;;5.66;100.00
21588;BME280;10956;48.878;13.316;2024-03-17T03:55:28;94731.28;;;5.65;100.00
21588;BME280;10956;48.878;13.316;2024-03-17T03:57:54;94735.72;;;5.64;100.00
21588;BME280;10956;48.878;13.316;2024-03-17T04:00:20;94730.13;;;5.61;100.00
21588;BME280;10956;48.878;13.316;2024-03-17T04:02:48;94731.72;;;5.62;100.00
21588;BME280;10956;48.878;13.316;2024-03-17T04:05:14;94735.06;;;5.69;100.00
21588;BME280;10956;48.878;13.316;2024-03-17T04:07:39;94729.16;;;5.73;100.00
21588;BME280;10956;48.878;13.316;2024-03-17T04:10:06;94735.50;;;5.66;100.00
21588;BME280;10956;48.878;13.316;2024-03-17T04:12:31;94730.50;;;5.64;100.00
21588;BME280;10956;48.878;13.316;2024-03-17T04:14:57;94734.13;;;5.63;100.00
21588;BME280;10956;48.878;13.316;2024-03-17T04:17:23;94743.34;;;5.66;100.00
21588;BME280;10956;48.878;13.316;2024-03-17T04:19:49;94741.31;;;5.68;100.00
21588;BME280;10956;48.878;13.316;2024-03-17T04:22:15;94744.06;;;5.73;100.00
21588;BME280;10956;48.878;13.316;2024-03-17T04:24:43;94739.19;;;5.76;100.00
21588;BME280;10956;48.878;13.316;2024-03-17T04:27:08;94743.59;;;5.76;100.00
21588;BME280;10956;48.878;13.316;2024-03-17T04:29:34;94735.75;;;5.76;100.00
21588;BME280;10956;48.878;13.316;2024-03-17T04:32:00;94732.22;;;5.70;100.00
21588;BME280;10956;48.878;13.316;2024-03-17T04:34:27;94742.03;;;5.75;100.00
21588;BME280;10956;48.878;13.316;2024-03-17T04:36:52;94738.47;;;5.69;100.00
21588;BME280;10956;48.878;13.316;2024-03-17T04:39:19;94737.66;;;5.69;100.00
21588;BME280;10956;48.878;13.316;2024-03-17T04:41:45;94737.09;;;5.67;100.00
21588;BME280;10956;48.878;13.316;2024-03-17T04:44:13;94738.91;;;5.66;100.00
21588;BME280;10956;48.878;13.316;2024-03-17T04:46:39;94734.56;;;5.60;100.00
21588;BME280;10956;48.878;13.316;2024-03-17T04:49:04;94735.69;;;5.53;100.00
21588;BME280;10956;48.878;13.316;2024-03-17T04:51:29;94743.50;;;5.53;100.00
21588;BME280;10956;48.878;13.316;2024-03-17T04:53:55;94739.88;;;5.54;100.00
21588;BME280;10956;48.878;13.316;2024-03-17T04:56:20;94738.28;;;5.53;100.00
21588;BME280;10956;48.878;13.316;2024-03-17T04:58:46;94741.22;;;5.44;100.00
21588;BME280;10956;48.878;13.316;2024-03-17T05:01:12;94744.91;;;5.37;100.00
21588;BME280;10956;48.878;13.316;2024-03-17T05:03:38;94736.56;;;5.28;100.00
21588;BME280;10956;48.878;13.316;2024-03-17T05:06:04;94739.94;;;5.17;100.00
21588;BME280;10956;48.878;13.316;2024-03-17T05:08:31;94744.88;;;5.07;100.00
21588;BME280;10956;48.878;13.316;2024-03-17T05:11:04;94747.41;;;4.95;100.00
21588;BME280;10956;48.878;13.316;2024-03-17T05:13:31;94747.03;;;4.92;100.00
21588;BME280;10956;48.878;13.316;2024-03-17T05:15:57;94751.25;;;4.93;100.00
21588;BME280;10956;48.878;13.316;2024-03-17T05:18:23;94744.13;;;5.00;100.00
21588;BME280;10956;48.878;13.316;2024-03-17T05:21:01;94739.63;;;5.07;100.00
21588;BME280;10956;48.878;13.316;2024-03-17T05:23:27;94750.00;;;5.13;100.00
21588;BME280;10956;48.878;13.316;2024-03-17T05:25:54;94757.19;;;5.18;100.00
21588;BME280;10956;48.878;13.316;2024-03-17T05:28:20;94755.75;;;5.22;100.00
21588;BME280;10956;48.878;13.316;2024-03-17T05:30:45;94753.84;;;5.29;100.00
21588;BME280;10956;48.878;13.316;2024-03-17T05:33:11;94761.25;;;5.32;100.00
21588;BME280;10956;48.878;13.316;2024-03-17T05:35:36;94757.63;;;5.33;100.00
21588;BME280;10956;48.878;13.316;2024-03-17T05:38:02;94766.63;;;5.37;100.00
21588;BME280;10956;48.878;13.316;2024-03-17T05:40:27;94758.50;;;5.45;100.00
21588;BME280;10956;48.878;13.316;2024-03-17T05:42:52;94762.84;;;5.51;100.00
21588;BME280;10956;48.878;13.316;2024-03-17T05:45:18;94766.03;;;5.54;100.00
21588;BME280;10956;48.878;13.316;2024-03-17T05:47:43;94769.56;;;5.59;100.00
21588;BME280;10956;48.878;13.316;2024-03-17T05:50:09;94768.69;;;5.65;100.00
21588;BME280;10956;48.878;13.316;2024-03-17T05:52:34;94778.50;;;5.70;100.00
21588;BME280;10956;48.878;13.316;2024-03-17T05:55:00;94779.66;;;5.74;100.00
21588;BME280;10956;48.878;13.316;2024-03-17T05:57:25;94786.16;;;5.83;100.00
21588;BME280;10956;48.878;13.316;2024-03-17T05:59:51;94786.31;;;5.88;100.00
21588;BME280;10956;48.878;13.316;2024-03-17T06:02:17;94784.88;;;5.92;100.00
21588;BME280;10956;48.878;13.316;2024-03-17T06:04:44;94793.66;;;5.98;100.00
21588;BME280;10956;48.878;13.316;2024-03-17T06:07:09;94790.00;;;5.99;100.00
21588;BME280;10956;48.878;13.316;2024-03-17T06:09:35;94793.34;;;6.06;100.00
21588;BME280;10956;48.878;13.316;2024-03-17T06:12:00;94800.66;;;6.15;100.00
21588;BME280;10956;48.878;13.316;2024-03-17T06:14:26;94795.31;;;6.22;100.00
21588;BME280;10956;48.878;13.316;2024-03-17T06:16:51;94789.97;;;6.29;100.00
21588;BME280;10956;48.878;13.316;2024-03-17T06:19:16;94794.78;;;6.32;100.00
21588;BME280;10956;48.878;13.316;2024-03-17T06:21:42;94795.03;;;6.42;100.00
21588;BME280;10956;48.878;13.316;2024-03-17T06:24:07;94802.44;;;6.45;100.00
21588;BME280;10956;48.878;13.316;2024-03-17T06:26:33;94797.31;;;6.50;100.00
21588;BME280;10956;48.878;13.316;2024-03-17T06:29:02;94793.91;;;6.61;100.00
21588;BME280;10956;48.878;13.316;2024-03-17T06:31:28;94796.41;;;6.56;100.00
21588;BME280;10956;48.878;13.316;2024-03-17T06:33:53;94795.97;;;6.59;100.00
21588;BME280;10956;48.878;13.316;2024-03-17T06:36:19;94791.41;;;6.66;100.00
21588;BME280;10956;48.878;13.316;2024-03-17T06:38:44;94791.06;;;6.74;100.00
21588;BME280;10956;48.878;13.316;2024-03-17T06:41:10;94797.13;;;6.87;100.00
21588;BME280;10956;48.878;13.316;2024-03-17T06:43:35;94796.88;;;7.00;100.00
21588;BME280;10956;48.878;13.316;2024-03-17T06:46:01;94802.81;;;7.07;100.00
21588;BME280;10956;48.878;13.316;2024-03-17T06:48:28;94799.84;;;7.15;100.00
21588;BME280;10956;48.878;13.316;2024-03-17T06:50:54;94794.34;;;7.28;100.00
21588;BME280;10956;48.878;13.316;2024-03-17T06:53:23;94805.84;;;7.39;100.00
21588;BME280;10956;48.878;13.316;2024-03-17T06:55:57;94797.19;;;7.50;100.00
21588;BME280;10956;48.878;13.316;2024-03-17T06:58:23;94802.28;;;7.57;100.00
21588;BME280;10956;48.878;13.316;2024-03-17T07:00:53;94801.78;;;7.71;100.00
21588;BME280;10956;48.878;13.316;2024-03-17T07:03:19;94797.16;;;7.90;100.00
21588;BME280;10956;48.878;13.316;2024-03-17T07:05:51;94799.69;;;8.14;100.00
21588;BME280;10956;48.878;13.316;2024-03-17T07:08:17;94794.72;;;8.29;100.00
21588;BME280;10956;48.878;13.316;2024-03-17T07:11:03;94808.78;;;8.51;100.00
21588;BME280;10956;48.878;13.316;2024-03-17T07:13:34;94801.72;;;8.68;100.00
21588;BME280;10956;48.878;13.316;2024-03-17T07:16:00;94798.28;;;8.85;100.00
21588;BME280;10956;48.878;13.316;2024-03-17T07:18:30;94805.78;;;8.93;100.00
21588;BME280;10956;48.878;13.316;2024-03-17T07:20:59;94800.91;;;9.01;100.00
21588;BME280;10956;48.878;13.316;2024-03-17T07:23:26;94797.00;;;9.04;100.00
21588;BME280;10956;48.878;13.316;2024-03-17T07:25:55;94804.97;;;9.09;100.00
21588;BME280;10956;48.878;13.316;2024-03-17T07:28:22;94804.53;;;9.17;100.00
21588;BME280;10956;48.878;13.316;2024-03-17T07:30:51;94804.19;;;9.30;100.00
21588;BME280;10956;48.878;13.316;2024-03-17T07:33:17;94795.59;;;9.35;100.00
21588;BME280;10956;48.878;13.316;2024-03-17T07:35:50;94801.22;;;9.44;100.00
21588;BME280;10956;48.878;13.316;2024-03-17T07:38:16;94810.53;;;9.51;100.00
21588;BME280;10956;48.878;13.316;2024-03-17T07:40:43;94801.19;;;9.60;100.00
21588;BME280;10956;48.878;13.316;2024-03-17T07:43:09;94798.84;;;9.64;100.00
21588;BME280;10956;48.878;13.316;2024-03-17T07:45:34;94801.00;;;9.67;100.00
21588;BME280;10956;48.878;13.316;2024-03-17T07:48:00;94803.19;;;9.75;100.00
21588;BME280;10956;48.878;13.316;2024-03-17T07:50:26;94797.06;;;9.91;100.00
21588;BME280;10956;48.878;13.316;2024-03-17T07:52:52;94798.88;;;10.13;100.00
21588;BME280;10956;48.878;13.316;2024-03-17T07:55:17;94792.41;;;10.20;99.83
21588;BME280;10956;48.878;13.316;2024-03-17T07:57:42;94791.16;;;10.28;100.00
21588;BME280;10956;48.878;13.316;2024-03-17T08:00:08;94794.88;;;10.32;99.63
21588;BME280;10956;48.878;13.316;2024-03-17T08:02:46;94789.38;;;10.33;98.82
21588;BME280;10956;48.878;13.316;2024-03-17T08:05:11;94786.00;;;10.38;98.04
21588;BME280;10956;48.878;13.316;2024-03-17T08:07:37;94789.47;;;10.44;97.19
21588;BME280;10956;48.878;13.316;2024-03-17T08:10:03;94780.81;;;10.48;96.25
21588;BME280;10956;48.878;13.316;2024-03-17T08:12:29;94776.53;;;10.42;91.93
21588;BME280;10956;48.878;13.316;2024-03-17T08:14:54;94784.09;;;10.33;89.03
21588;BME280;10956;48.878;13.316;2024-03-17T08:17:20;94778.78;;;10.07;87.61
21588;BME280;10956;48.878;13.316;2024-03-17T08:19:45;94773.50;;;9.80;86.55
21588;BME280;10956;48.878;13.316;2024-03-17T08:22:11;94770.13;;;9.41;82.54
21588;BME280;10956;48.878;13.316;2024-03-17T08:24:36;94774.06;;;8.99;80.47
21588;BME280;10956;48.878;13.316;2024-03-17T08:27:02;94766.53;;;8.69;82.36
21588;BME280;10956;48.878;13.316;2024-03-17T08:29:28;94771.63;;;8.59;84.53
21588;BME280;10956;48.878;13.316;2024-03-17T08:31:53;94772.00;;;8.51;83.76
21588;BME280;10956;48.878;13.316;2024-03-17T08:34:18;94760.47;;;8.35;85.03
21588;BME280;10956;48.878;13.316;2024-03-17T08:36:44;94763.50;;;8.16;84.76
21588;BME280;10956;48.878;13.316;2024-03-17T08:39:09;94761.75;;;8.04;84.44
21588;BME280;10956;48.878;13.316;2024-03-17T08:41:36;94758.56;;;8.02;85.26
21588;BME280;10956;48.878;13.316;2024-03-17T08:44:02;94762.22;;;8.01;85.08
21588;BME280;10956;48.878;13.316;2024-03-17T08:46:27;94760.88;;;8.16;85.84
21588;BME280;10956;48.878;13.316;2024-03-17T08:48:53;94763.03;;;8.19;86.79
21588;BME280;10956;48.878;13.316;2024-03-17T08:51:18;94753.19;;;8.26;86.65
21588;BME280;10956;48.878;13.316;2024-03-17T08:53:43;94764.53;;;8.15;86.11
21588;BME280;10956;48.878;13.316;2024-03-17T08:56:09;94765.28;;;8.27;86.98
21588;BME280;10956;48.878;13.316;2024-03-17T08:58:34;94752.72;;;8.29;86.26
21588;BME280;10956;48.878;13.316;2024-03-17T09:01:07;94757.47;;;8.32;84.90
21588;BME280;10956;48.878;13.316;2024-03-17T09:03:36;94753.19;;;8.26;83.76
21588;BME280;10956;48.878;13.316;2024-03-17T09:06:02;94753.38;;;8.36;83.96
21588;BME280;10956;48.878;13.316;2024-03-17T09:08:27;94750.03;;;8.40;83.02
21588;BME280;10956;48.878;13.316;2024-03-17T09:10:53;94750.34;;;8.44;82.79
21588;BME280;10956;48.878;13.316;2024-03-17T09:13:24;94749.56;;;8.60;83.51
21588;BME280;10956;48.878;13.316;2024-03-17T09:15:55;94747.19;;;8.59;84.74
21588;BME280;10956;48.878;13.316;2024-03-17T09:18:22;94746.06;;;8.55;85.50
21588;BME280;10956;48.878;13.316;2024-03-17T09:23:23;94741.13;;;8.58;86.74
21588;BME280;10956;48.878;13.316;2024-03-17T09:25:56;94738.81;;;8.62;84.46
21588;BME280;10956;48.878;13.316;2024-03-17T09:28:22;94743.34;;;8.66;85.34
21588;BME280;10956;48.878;13.316;2024-03-17T09:30:48;94741.44;;;8.79;85.91
21588;BME280;10956;48.878;13.316;2024-03-17T09:33:14;94743.03;;;8.80;86.48
21588;BME280;10956;48.878;13.316;2024-03-17T09:35:39;94742.88;;;8.69;85.21
21588;BME280;10956;48.878;13.316;2024-03-17T09:38:04;94733.47;;;8.73;85.48
21588;BME280;10956;48.878;13.316;2024-03-17T09:40:30;94727.88;;;8.87;85.55
21588;BME280;10956;48.878;13.316;2024-03-17T09:42:56;94730.75;;;8.85;85.05
21588;BME280;10956;48.878;13.316;2024-03-17T09:45:24;94731.06;;;8.89;86.46
21588;BME280;10956;48.878;13.316;2024-03-17T09:47:50;94725.72;;;8.84;85.07
21588;BME280;10956;48.878;13.316;2024-03-17T09:50:16;94733.31;;;8.80;84.94
21588;BME280;10956;48.878;13.316;2024-03-17T09:52:45;94727.31;;;8.85;85.13
21588;BME280;10956;48.878;13.316;2024-03-17T09:55:17;94732.47;;;8.96;86.61
21588;BME280;10956;48.878;13.316;2024-03-17T09:57:43;94743.78;;;8.97;87.47
21588;BME280;10956;48.878;13.316;2024-03-17T10:00:15;94742.03;;;9.02;87.07
21588;BME280;10956;48.878;13.316;2024-03-17T10:02:45;94746.50;;;9.02;86.78
21588;BME280;10956;48.878;13.316;2024-03-17T10:05:20;94746.84;;;8.89;85.03
21588;BME280;10956;48.878;13.316;2024-03-17T10:07:46;94743.44;;;9.10;85.76
21588;BME280;10956;48.878;13.316;2024-03-17T10:10:13;94734.78;;;9.31;84.81
21588;BME280;10956;48.878;13.316;2024-03-17T10:12:39;94737.91;;;9.50;84.44
21588;BME280;10956;48.878;13.316;2024-03-17T10:15:04;94727.19;;;9.57;83.86
21588;BME280;10956;48.878;13.316;2024-03-17T10:17:33;94727.25;;;9.62;84.63
21588;BME280;10956;48.878;13.316;2024-03-17T10:20:21;94735.25;;;9.72;83.05
21588;BME280;10956;48.878;13.316;2024-03-17T10:25:31;94742.06;;;10.49;81.12
21588;BME280;10956;48.878;13.316;2024-03-17T10:27:57;94735.69;;;10.77;79.19
21588;BME280;10956;48.878;13.316;2024-03-17T10:30:23;94738.00;;;11.05;77.75
21588;BME280;10956;48.878;13.316;2024-03-17T10:32:58;94720.19;;;11.27;75.50
21588;BME280;10956;48.878;13.316;2024-03-17T10:35:35;94718.91;;;11.40;75.32
21588;BME280;10956;48.878;13.316;2024-03-17T10:38:06;94726.88;;;11.50;75.45
21588;BME280;10956;48.878;13.316;2024-03-17T10:40:32;94719.75;;;11.51;74.59
21588;BME280;10956;48.878;13.316;2024-03-17T10:43:00;94719.25;;;11.59;74.30
21588;BME280;10956;48.878;13.316;2024-03-17T10:45:26;94717.78;;;11.93;74.66
21588;BME280;10956;48.878;13.316;2024-03-17T10:47:56;94718.38;;;12.26;74.11
21588;BME280;10956;48.878;13.316;2024-03-17T10:50:32;94717.84;;;12.59;73.36
21588;BME280;10956;48.878;13.316;2024-03-17T10:53:04;94713.59;;;12.89;72.17
21588;BME280;10956;48.878;13.316;2024-03-17T10:55:44;94714.34;;;13.20;72.33
21588;BME280;10956;48.878;13.316;2024-03-17T10:58:23;94719.13;;;13.13;71.27
21588;BME280;10956;48.878;13.316;2024-03-17T11:00:53;94715.44;;;12.93;71.12
21588;BME280;10956;48.878;13.316;2024-03-17T11:03:19;94713.06;;;12.92;71.04
21588;BME280;10956;48.878;13.316;2024-03-17T11:05:47;94711.47;;;12.91;72.14
21588;BME280;10956;48.878;13.316;2024-03-17T11:08:15;94713.59;;;12.89;71.87
21588;BME280;10956;48.878;13.316;2024-03-17T11:10:49;94708.78;;;13.11;71.92
21588;BME280;10956;48.878;13.316;2024-03-17T11:13:25;94708.25;;;13.24;71.49
21588;BME280;10956;48.878;13.316;2024-03-17T11:15:51;94702.91;;;13.40;71.37
21588;BME280;10956;48.878;13.316;2024-03-17T11:21:19;94692.97;;;12.96;71.89
21588;BME280;10956;48.878;13.316;2024-03-17T11:24:06;94690.63;;;12.64;73.41
21588;BME280;10956;48.878;13.316;2024-03-17T11:26:42;94691.94;;;12.21;73.79
21588;BME280;10956;48.878;13.316;2024-03-17T11:29:26;94689.00;;;11.97;74.48
21588;BME280;10956;48.878;13.316;2024-03-17T11:31:52;94685.28;;;11.78;74.09
21588;BME280;10956;48.878;13.316;2024-03-17T11:34:31;94684.41;;;11.62;74.10
21588;BME280;10956;48.878;13.316;2024-03-17T11:36:59;94693.34;;;11.51;75.07
21588;BME280;10956;48.878;13.316;2024-03-17T11:39:47;94687.03;;;11.52;76.49
21588;BME280;10956;48.878;13.316;2024-03-17T11:42:15;94683.88;;;11.60;75.85
21588;BME280;10956;48.878;13.316;2024-03-17T11:45:14;94676.50;;;11.67;75.52
21588;BME280;10956;48.878;13.316;2024-03-17T11:47:41;94676.00;;;11.70;76.73
21588;BME280;10956;48.878;13.316;2024-03-17T11:50:10;94676.00;;;11.70;77.33
21588;BME280;10956;48.878;13.316;2024-03-17T11:52:37;94673.66;;;11.79;78.16
21588;BME280;10956;48.878;13.316;2024-03-17T11:55:02;94675.03;;;12.07;77.47
21588;BME280;10956;48.878;13.316;2024-03-17T11:57:29;94670.28;;;12.14;76.39
21588;BME280;10956;48.878;13.316;2024-03-17T11:59:56;94666.31;;;12.06;77.72
21588;BME280;10956;48.878;13.316;2024-03-17T12:02:27;94661.28;;;12.15;77.03
21588;BME280;10956;48.878;13.316;2024-03-17T12:04:54;94662.09;;;12.46;76.80
21588;BME280;10956;48.878;13.316;2024-03-17T12:07:22;94659.13;;;12.88;75.47
21588;BME280;10956;48.878;13.316;2024-03-17T12:09:50;94650.38;;;12.92;75.64
21588;BME280;10956;48.878;13.316;2024-03-17T12:12:20;94656.44;;;13.03;75.45
21588;BME280;10956;48.878;13.316;2024-03-17T12:14:47;94639.53;;;12.89;74.61
21588;BME280;10956;48.878;13.316;2024-03-17T12:17:14;94644.88;;;12.74;73.92
21588;BME280;10956;48.878;13.316;2024-03-17T12:19:41;94628.50;;;12.61;74.40
21588;BME280;10956;48.878;13.316;2024-03-17T12:22:16;94632.72;;;12.68;75.53
21588;BME280;10956;48.878;13.316;2024-03-17T12:24:43;94622.13;;;12.68;75.37
21588;BME280;10956;48.878;13.316;2024-03-17T12:27:17;94610.50;;;12.69;74.21
21588;BME280;10956;48.878;13.316;2024-03-17T12:29:42;94604.16;;;12.70;74.42
21588;BME280;10956;48.878;13.316;2024-03-17T12:32:16;94602.59;;;12.58;75.30
21588;BME280;10956;48.878;13.316;2024-03-17T12:34:43;94601.28;;;12.46;76.08
21588;BME280;10956;48.878;13.316;2024-03-17T12:37:15;94602.63;;;12.28;76.81
21588;BME280;10956;48.878;13.316;2024-03-17T12:39:41;94600.00;;;12.03;78.58
21588;BME280;10956;48.878;13.316;2024-03-17T12:42:09;94597.38;;;11.98;78.34
21588;BME280;10956;48.878;13.316;2024-03-17T12:44:50;94594.72;;;11.98;79.16
21588;BME280;10956;48.878;13.316;2024-03-17T12:47:29;94603.19;;;12.05;78.93
21588;BME280;10956;48.878;13.316;2024-03-17T12:49:56;94600.00;;;12.08;77.71
21588;BME280;10956;48.878;13.316;2024-03-17T12:52:30;94594.44;;;12.19;77.93
21588;BME280;10956;48.878;13.316;2024-03-17T12:55:00;94590.44;;;12.47;77.47
21588;BME280;10956;48.878;13.316;2024-03-17T12:57:45;94585.13;;;12.68;76.96
21588;BME280;10956;48.878;13.316;2024-03-17T13:00:30;94589.34;;;12.74;77.52
21588;BME280;10956;48.878;13.316;2024-03-17T13:03:02;94586.41;;;12.75;76.98